createdAt,value
2023-01-08T00:02:47.495Z,7.69
2023-01-08T00:05:49.323Z,7.81
2023-01-08T00:08:50.920Z,7.87
2023-01-08T00:11:52.641Z,7.85
2023-01-08T00:14:55.435Z,7.82
2023-01-08T00:17:57.227Z,7.85
2023-01-08T00:21:06.178Z,7.79
2023-01-08T00:24:07.841Z,7.80
2023-01-08T00:27:09.390Z,7.74
2023-01-08T00:30:13.015Z,7.80
2023-01-08T00:33:14.752Z,7.77
2023-01-08T00:36:20.590Z,7.81
2023-01-08T00:39:28.936Z,7.79
2023-01-08T00:42:30.439Z,7.94
2023-01-08T00:45:33.452Z,7.92
2023-01-08T00:48:34.957Z,7.87
2023-01-08T00:51:36.420Z,7.96
2023-01-08T00:54:37.873Z,8.02
2023-01-08T00:57:39.498Z,8.05
2023-01-08T01:00:42.585Z,7.99
2023-01-08T01:03:44.148Z,8.00
2023-01-08T01:06:45.635Z,8.07
2023-01-08T01:09:47.150Z,8.09
2023-01-08T01:12:48.654Z,8.10
2023-01-08T01:15:58.116Z,8.09
2023-01-08T01:18:59.560Z,8.07
2023-01-08T01:22:08.761Z,8.05
2023-01-08T01:25:10.469Z,8.16
2023-01-08T01:28:12.026Z,8.10
2023-01-08T01:31:15.338Z,8.10
2023-01-08T01:34:16.995Z,8.12
2023-01-08T01:37:18.547Z,8.07
2023-01-08T01:40:23.596Z,8.07
2023-01-08T01:43:43.220Z,8.07
2023-01-08T01:46:47.919Z,8.09
2023-01-08T01:49:54.199Z,8.10
2023-01-08T01:53:00.275Z,8.15
2023-01-08T01:56:03.455Z,8.15
2023-01-08T01:59:05.567Z,8.15
2023-01-08T02:02:08.958Z,8.12
2023-01-08T02:05:10.598Z,8.12
2023-01-08T02:08:13.573Z,8.12
2023-01-08T02:11:20.670Z,8.09
2023-01-08T02:14:26.850Z,8.01
2023-01-08T02:17:35.509Z,8.07
2023-01-08T02:20:39.893Z,8.07
2023-01-08T02:23:47.151Z,8.17
2023-01-08T02:26:51.069Z,8.14
2023-01-08T02:29:53.697Z,8.06
2023-01-08T02:32:55.384Z,8.12
2023-01-08T02:36:17.800Z,8.13
2023-01-08T02:39:37.951Z,8.10
2023-01-08T02:42:45.929Z,8.05
2023-01-08T02:45:48.915Z,8.07
2023-01-08T02:48:54.037Z,8.23
2023-01-08T02:51:55.880Z,8.25
2023-01-08T02:54:57.218Z,8.38
2023-01-08T02:58:00.188Z,8.35
2023-01-08T03:01:03.152Z,8.38
2023-01-08T03:04:07.099Z,8.47
2023-01-08T03:07:08.905Z,8.36
2023-01-08T03:10:10.297Z,8.48
2023-01-08T03:13:16.631Z,8.44
2023-01-08T03:16:22.876Z,8.47
2023-01-08T03:19:27.820Z,8.54
2023-01-08T03:22:30.761Z,8.54
2023-01-08T03:25:34.003Z,8.54
2023-01-08T03:28:39.497Z,8.64
2023-01-08T03:31:41.367Z,8.64
2023-01-08T03:34:44.240Z,8.70
2023-01-08T03:37:49.296Z,8.62
2023-01-08T03:40:54.217Z,8.67
2023-01-08T03:43:57.143Z,8.58
2023-01-08T03:46:58.589Z,8.55
2023-01-08T03:50:01.957Z,8.51
2023-01-08T03:53:03.690Z,8.53
2023-01-08T03:56:05.900Z,8.62
2023-01-08T03:59:08.686Z,8.59
2023-01-08T04:02:10.235Z,8.58
2023-01-08T04:05:11.821Z,8.62
2023-01-08T04:08:13.302Z,8.58
2023-01-08T04:11:14.783Z,8.68
2023-01-08T04:14:17.605Z,8.62
2023-01-08T04:17:19.020Z,8.58
2023-01-08T04:20:20.715Z,8.55
2023-01-08T04:23:22.161Z,8.45
2023-01-08T04:26:23.605Z,8.40
2023-01-08T04:29:26.399Z,8.49
2023-01-08T04:32:27.880Z,8.57
2023-01-08T04:35:29.325Z,8.52
2023-01-08T04:38:31.077Z,8.45
2023-01-08T04:41:32.496Z,8.45
2023-01-08T04:44:35.320Z,8.47
2023-01-08T04:47:36.858Z,8.38
2023-01-08T04:50:38.297Z,8.42
2023-01-08T04:53:40.231Z,8.30
2023-01-08T04:56:41.564Z,8.31
2023-01-08T04:59:44.305Z,8.34
2023-01-08T05:02:45.938Z,8.25
2023-01-08T05:05:49.843Z,8.24
2023-01-08T05:08:51.583Z,8.32
2023-01-08T05:11:53.034Z,8.26
2023-01-08T05:14:55.848Z,8.28
2023-01-08T05:18:01.185Z,8.23
2023-01-08T05:21:03.721Z,8.24
2023-01-08T05:24:06.185Z,8.20
2023-01-08T05:27:07.734Z,8.18
2023-01-08T05:30:11.879Z,8.16
2023-01-08T05:33:13.326Z,8.14
2023-01-08T05:36:14.772Z,8.07
2023-01-08T05:39:16.196Z,8.12
2023-01-08T05:42:17.677Z,8.09
2023-01-08T05:45:20.494Z,8.03
2023-01-08T05:48:22.114Z,8.03
2023-01-08T05:51:23.591Z,8.05
2023-01-08T05:54:25.221Z,8.03
2023-01-08T05:57:26.844Z,8.01
2023-01-08T06:00:30.245Z,8.02
2023-01-08T06:03:31.660Z,7.98
2023-01-08T06:06:33.135Z,8.08
2023-01-08T06:09:34.560Z,8.08
2023-01-08T06:12:36.197Z,8.08
2023-01-08T06:15:39.088Z,8.10
2023-01-08T06:18:40.662Z,8.15
2023-01-08T06:21:42.107Z,8.14
2023-01-08T06:24:43.574Z,8.14
2023-01-08T06:27:45.022Z,8.13
2023-01-08T06:30:48.140Z,8.13
2023-01-08T06:33:49.693Z,8.13
2023-01-08T06:36:51.169Z,8.11
2023-01-08T06:39:52.654Z,8.07
2023-01-08T06:42:54.109Z,8.06
2023-01-08T06:45:56.929Z,8.05
2023-01-08T06:48:58.420Z,8.09
2023-01-08T06:51:59.871Z,8.08
2023-01-08T06:55:01.381Z,8.04
2023-01-08T06:58:02.825Z,8.03
2023-01-08T07:01:09.770Z,8.06
2023-01-08T07:04:11.239Z,8.04
2023-01-08T07:07:13.571Z,8.05
2023-01-08T07:10:15.217Z,8.04
2023-01-08T07:13:16.653Z,7.99
2023-01-08T07:16:19.510Z,7.97
2023-01-08T07:19:21.262Z,7.95
2023-01-08T07:22:22.699Z,7.92
2023-01-08T07:25:25.869Z,7.96
2023-01-08T07:28:27.457Z,7.90
2023-01-08T07:31:30.669Z,7.84
2023-01-08T07:34:32.231Z,7.85
2023-01-08T07:37:33.720Z,7.87
2023-01-08T07:40:35.141Z,7.86
2023-01-08T07:43:36.596Z,7.91
2023-01-08T07:46:39.392Z,7.87
2023-01-08T07:49:40.871Z,7.86
2023-01-08T07:52:42.320Z,7.87
2023-01-08T07:55:44.250Z,7.97
2023-01-08T07:58:45.571Z,7.98
2023-01-08T08:01:48.644Z,7.96
2023-01-08T08:04:50.191Z,7.98
2023-01-08T08:07:51.620Z,7.97
2023-01-08T08:10:53.052Z,8.02
2023-01-08T08:13:57.735Z,8.01
2023-01-08T08:17:00.632Z,8.02
2023-01-08T08:20:02.106Z,8.01
2023-01-08T08:23:05.216Z,8.02
2023-01-08T08:26:06.645Z,8.05
2023-01-08T08:29:08.082Z,8.05
2023-01-08T08:32:10.956Z,8.08
2023-01-08T08:35:12.763Z,8.05
2023-01-08T08:38:14.482Z,7.97
2023-01-08T08:41:16.947Z,7.98
2023-01-08T08:44:18.414Z,7.95
2023-01-08T08:47:21.181Z,7.99
2023-01-08T08:50:29.268Z,8.09
2023-01-08T08:53:30.703Z,8.15
2023-01-08T08:56:32.175Z,8.16
2023-01-08T08:59:33.807Z,8.14
2023-01-08T09:02:36.888Z,8.16
2023-01-08T09:05:38.458Z,8.15
2023-01-08T09:08:39.980Z,8.21
2023-01-08T09:11:41.589Z,8.25
2023-01-08T09:14:45.814Z,8.28
2023-01-08T09:17:53.897Z,8.29
2023-01-08T09:20:55.381Z,8.38
2023-01-08T09:23:56.796Z,8.46
2023-01-08T09:26:58.435Z,8.56
2023-01-08T09:30:04.217Z,8.62
2023-01-08T09:33:07.004Z,8.63
2023-01-08T09:36:10.357Z,8.54
2023-01-08T09:39:11.882Z,8.48
2023-01-08T09:42:19.696Z,8.46
2023-01-08T09:45:28.727Z,8.43
2023-01-08T09:48:34.804Z,8.34
2023-01-08T09:51:38.045Z,8.32
2023-01-08T09:54:40.494Z,8.25
2023-01-08T09:57:42.343Z,8.05
2023-01-08T10:00:43.802Z,7.58
2023-01-08T10:03:56.178Z,7.21
2023-01-08T10:07:12.895Z,7.43
2023-01-08T10:10:20.264Z,7.44
2023-01-08T10:13:21.747Z,7.47
2023-01-08T10:16:28.258Z,7.47
2023-01-08T10:19:31.213Z,7.43
2023-01-08T10:22:33.413Z,7.60
2023-01-08T10:25:48.656Z,7.77
2023-01-08T10:28:50.139Z,7.80
2023-01-08T10:31:53.479Z,7.83
2023-01-08T10:34:57.905Z,7.85
2023-01-08T10:37:59.611Z,7.82
2023-01-08T10:41:01.786Z,7.76
2023-01-08T10:44:09.936Z,7.65
2023-01-08T10:47:16.675Z,7.82
2023-01-08T10:50:24.125Z,8.02
2023-01-08T10:53:28.756Z,8.10
2023-01-08T10:56:39.734Z,8.14
2023-01-08T10:59:44.039Z,8.27
2023-01-08T11:02:46.694Z,8.41
2023-01-08T11:05:49.504Z,8.49
2023-01-08T11:08:52.446Z,8.45
2023-01-08T11:11:53.901Z,8.55
2023-01-08T11:14:55.481Z,8.62
2023-01-08T11:18:04.913Z,8.82
2023-01-08T11:21:09.721Z,8.82
2023-01-08T11:24:15.997Z,8.72
2023-01-08T11:27:23.545Z,8.61
2023-01-08T11:30:31.773Z,8.60
2023-01-08T11:33:35.110Z,8.78
2023-01-08T11:36:44.499Z,8.79
2023-01-08T11:39:51.073Z,8.67
2023-01-08T11:43:06.353Z,8.89
2023-01-08T11:46:20.330Z,8.71
2023-01-08T11:49:40.018Z,8.69
2023-01-08T11:53:01.707Z,8.77
2023-01-08T11:56:13.907Z,8.81
2023-01-08T11:59:20.036Z,8.82
2023-01-08T12:02:27.707Z,8.77
2023-01-08T12:05:34.278Z,8.88
2023-01-08T12:08:48.890Z,8.84
2023-01-08T12:11:54.947Z,8.94
2023-01-08T12:15:04.759Z,8.93
2023-01-08T12:18:32.963Z,8.66
2023-01-08T12:21:40.277Z,8.78
2023-01-08T12:25:24.827Z,8.74
2023-01-08T12:28:58.193Z,8.67
2023-01-08T12:32:21.906Z,8.97
2023-01-08T12:35:29.967Z,9.10
2023-01-08T12:38:33.719Z,9.27
2023-01-08T12:41:37.500Z,9.39
2023-01-08T12:44:45.027Z,9.26
2023-01-08T12:47:48.647Z,9.12
2023-01-08T12:50:58.752Z,9.53
2023-01-08T12:54:07.649Z,9.72
2023-01-08T12:57:12.580Z,9.61
2023-01-08T13:00:23.068Z,9.58
2023-01-08T13:03:27.158Z,9.67
2023-01-08T13:06:49.736Z,9.75
2023-01-08T13:09:55.723Z,9.76
2023-01-08T13:12:59.006Z,9.29
2023-01-08T13:16:19.432Z,9.28
2023-01-08T13:19:25.697Z,9.23
2023-01-08T13:22:33.787Z,9.47
2023-01-08T13:25:38.464Z,9.56
2023-01-08T13:28:43.745Z,9.56
2023-01-08T13:31:52.211Z,9.44
2023-01-08T13:35:19.827Z,9.16
2023-01-08T13:38:21.517Z,9.16
2023-01-08T13:41:25.040Z,9.26
2023-01-08T13:44:29.919Z,9.10
2023-01-08T13:47:33.239Z,9.07
2023-01-08T13:50:36.893Z,8.97
2023-01-08T13:53:41.721Z,8.72
2023-01-08T13:56:45.001Z,8.58
2023-01-08T13:59:52.214Z,8.57
2023-01-08T14:02:53.708Z,8.55
2023-01-08T14:06:05.950Z,8.47
2023-01-08T14:09:22.845Z,8.47
2023-01-08T14:12:24.748Z,8.37
2023-01-08T14:15:28.589Z,8.38
2023-01-08T14:18:30.053Z,8.41
2023-01-08T14:21:33.033Z,8.38
2023-01-08T14:24:34.343Z,8.34
2023-01-08T14:27:35.886Z,8.25
2023-01-08T14:30:47.520Z,8.26
2023-01-08T14:33:49.797Z,8.25
2023-01-08T14:36:53.455Z,8.35
2023-01-08T14:39:55.294Z,8.25
2023-01-08T14:42:56.789Z,8.33
2023-01-08T14:45:59.669Z,8.33
2023-01-08T14:49:01.685Z,8.46
2023-01-08T14:52:03.470Z,8.29
2023-01-08T14:55:05.905Z,8.20
2023-01-08T14:58:14.639Z,8.10
2023-01-08T15:01:19.549Z,7.97
2023-01-08T15:04:22.258Z,8.02
2023-01-08T15:07:32.481Z,7.86
2023-01-08T15:10:39.523Z,7.65
2023-01-08T15:13:41.342Z,7.69
2023-01-08T15:16:44.211Z,7.59
2023-01-08T15:19:48.394Z,7.59
2023-01-08T15:22:49.853Z,7.53
2023-01-08T15:25:52.021Z,7.43
2023-01-08T15:28:55.012Z,7.36
2023-01-08T15:32:08.560Z,7.46
2023-01-08T15:35:13.664Z,7.45
2023-01-08T15:38:15.197Z,7.47
2023-01-08T15:41:18.247Z,7.40
2023-01-08T15:44:19.788Z,7.55
2023-01-08T15:47:25.577Z,7.66
2023-01-08T15:50:27.609Z,7.72
2023-01-08T15:53:29.069Z,7.93
2023-01-08T15:56:30.512Z,7.99
2023-01-08T15:59:31.962Z,8.14
2023-01-08T16:02:41.756Z,8.24
2023-01-08T16:05:43.297Z,8.24
2023-01-08T16:08:44.860Z,8.15
2023-01-08T16:11:46.714Z,8.02
2023-01-08T16:14:48.131Z,7.90
2023-01-08T16:17:51.119Z,7.61
2023-01-08T16:20:59.718Z,7.45
2023-01-08T16:24:05.233Z,7.49
2023-01-08T16:27:06.814Z,7.22
2023-01-08T16:30:10.756Z,7.02
2023-01-08T16:33:13.527Z,6.88
2023-01-08T16:36:19.224Z,6.76
2023-01-08T16:39:30.283Z,6.62
2023-01-08T16:42:38.678Z,6.54
2023-01-08T16:45:45.175Z,6.39
2023-01-08T16:48:49.193Z,6.28
2023-01-08T16:51:50.659Z,6.15
2023-01-08T16:54:54.309Z,6.07
2023-01-08T16:57:55.740Z,6.14
2023-01-08T17:00:57.761Z,6.10
2023-01-08T17:04:00.853Z,6.08
2023-01-08T17:07:08.725Z,6.22
2023-01-08T17:10:10.755Z,6.17
2023-01-08T17:13:15.737Z,6.02
2023-01-08T17:16:18.693Z,5.85
2023-01-08T17:19:24.212Z,5.95
2023-01-08T17:22:25.753Z,6.04
2023-01-08T17:25:27.433Z,5.96
2023-01-08T17:28:29.160Z,6.26
2023-01-08T17:31:30.774Z,6.08
2023-01-08T17:34:33.724Z,6.13
2023-01-08T17:37:35.580Z,6.12
2023-01-08T17:40:37.161Z,5.97
2023-01-08T17:43:45.336Z,6.01
2023-01-08T17:46:46.778Z,6.11
2023-01-08T17:49:50.331Z,5.99
2023-01-08T17:52:52.518Z,5.98
2023-01-08T17:55:54.141Z,5.90
2023-01-08T17:58:55.754Z,5.99
2023-01-08T18:01:57.348Z,5.77
2023-01-08T18:05:05.754Z,5.63
2023-01-08T18:08:07.199Z,5.62
2023-01-08T18:11:09.997Z,5.46
2023-01-08T18:14:16.408Z,5.80
2023-01-08T18:17:17.858Z,5.57
2023-01-08T18:20:21.016Z,5.48
2023-01-08T18:23:22.536Z,5.57
2023-01-08T18:26:24.083Z,5.82
2023-01-08T18:29:25.570Z,5.73
2023-01-08T18:32:27.055Z,5.60
2023-01-08T18:35:29.924Z,5.51
2023-01-08T18:38:31.665Z,5.48
2023-01-08T18:41:35.936Z,5.53
2023-01-08T18:44:38.377Z,5.61
2023-01-08T18:47:41.985Z,5.91
2023-01-08T18:50:47.689Z,5.91
2023-01-08T18:53:51.315Z,5.98
2023-01-08T18:56:52.776Z,6.08
2023-01-08T18:59:54.314Z,6.04
2023-01-08T19:02:55.861Z,6.07
2023-01-08T19:05:58.705Z,6.06
2023-01-08T19:09:00.333Z,6.21
2023-01-08T19:12:01.902Z,6.26
2023-01-08T19:15:10.452Z,6.21
2023-01-08T19:18:12.375Z,6.28
2023-01-08T19:21:15.141Z,6.17
2023-01-08T19:24:16.891Z,6.19
2023-01-08T19:27:18.414Z,6.22
2023-01-08T19:30:20.138Z,6.41
2023-01-08T19:33:28.467Z,6.47
2023-01-08T19:36:33.337Z,6.51
2023-01-08T19:39:34.881Z,6.50
2023-01-08T19:42:36.346Z,6.53
2023-01-08T19:45:37.904Z,6.43
2023-01-08T19:48:39.417Z,6.28
2023-01-08T19:51:42.243Z,6.35
2023-01-08T19:54:43.908Z,6.29
2023-01-08T19:57:45.422Z,6.37
2023-01-08T20:00:46.907Z,6.25
2023-01-08T20:03:59.308Z,6.35
2023-01-08T20:07:02.172Z,6.33
2023-01-08T20:10:10.531Z,6.25
2023-01-08T20:13:12.311Z,6.27
2023-01-08T20:16:15.903Z,6.24
2023-01-08T20:19:17.410Z,6.25
2023-01-08T20:22:20.438Z,6.01
2023-01-08T20:25:21.919Z,5.93
2023-01-08T20:28:23.626Z,5.97
2023-01-08T20:31:26.686Z,5.87
2023-01-08T20:34:34.081Z,5.92
2023-01-08T20:37:36.996Z,5.81
2023-01-08T20:40:38.504Z,5.89
2023-01-08T20:43:40.235Z,5.70
2023-01-08T20:46:42.077Z,5.70
2023-01-08T20:49:43.572Z,5.67
2023-01-08T20:52:57.044Z,5.58
2023-01-08T20:56:03.576Z,5.58
2023-01-08T20:59:05.150Z,5.59
2023-01-08T21:02:10.024Z,5.49
2023-01-08T21:05:11.376Z,5.44
2023-01-08T21:08:14.210Z,5.35
2023-01-08T21:11:15.999Z,5.38
2023-01-08T21:14:17.502Z,5.49
2023-01-08T21:17:20.499Z,5.50
2023-01-08T21:20:21.955Z,5.70
2023-01-08T21:23:24.767Z,5.59
2023-01-08T21:26:26.507Z,5.61
2023-01-08T21:29:32.688Z,5.68
2023-01-08T21:32:35.352Z,5.78
2023-01-08T21:35:36.922Z,5.92
2023-01-08T21:38:40.364Z,6.02
2023-01-08T21:41:41.865Z,6.16
2023-01-08T21:44:43.471Z,6.15
2023-01-08T21:47:45.020Z,6.05
2023-01-08T21:50:46.485Z,5.94
2023-01-08T21:53:52.829Z,5.89
2023-01-08T21:56:54.259Z,5.99
2023-01-08T21:59:56.030Z,5.93
2023-01-08T22:02:57.523Z,5.92
2023-01-08T22:05:59.824Z,5.91
2023-01-08T22:09:02.881Z,5.92
2023-01-08T22:12:04.580Z,5.86
2023-01-08T22:15:07.074Z,5.90
2023-01-08T22:18:08.575Z,5.81
2023-01-08T22:21:11.353Z,5.84
2023-01-08T22:24:14.133Z,6.04
2023-01-08T22:27:15.675Z,5.93
2023-01-08T22:30:17.556Z,5.99
2023-01-08T22:33:19.000Z,5.92
2023-01-08T22:36:20.446Z,6.04
2023-01-08T22:39:23.226Z,6.16
2023-01-08T22:42:24.705Z,6.16
2023-01-08T22:45:26.361Z,6.19
2023-01-08T22:48:27.880Z,6.25
2023-01-08T22:51:29.400Z,6.24
2023-01-08T22:54:32.177Z,6.40
2023-01-08T22:57:34.751Z,6.51
2023-01-08T23:00:36.215Z,6.54
2023-01-08T23:03:37.713Z,6.52
2023-01-08T23:06:39.183Z,6.58
2023-01-08T23:09:42.097Z,6.71
2023-01-08T23:12:43.571Z,6.78
2023-01-08T23:15:44.992Z,6.82
2023-01-08T23:18:46.546Z,6.81
2023-01-08T23:21:47.990Z,6.72
2023-01-08T23:24:50.892Z,6.70
2023-01-08T23:27:52.373Z,6.79
2023-01-08T23:30:53.845Z,6.91
2023-01-08T23:33:55.435Z,6.81
2023-01-08T23:36:56.891Z,6.80
2023-01-08T23:39:59.676Z,6.88
2023-01-08T23:43:01.103Z,6.92
2023-01-08T23:46:03.007Z,6.77
2023-01-08T23:49:05.204Z,6.83
2023-01-08T23:52:06.668Z,6.78
2023-01-08T23:55:09.725Z,6.70
2023-01-08T23:58:11.179Z,6.82
